Schedule Details


Flight Number: CTN700
Departure: Franjo Tudman (LDZA) at 14:00
Arrival: Lisbon (LPPT) at 16:25
Route: KOTOR?UT742?NAKIT?UL615?ROTAR?DCT?BENUS?DCT?IVLOX?DCT?DORAV?DCT?BORDI?UZ185?KOLON?UM984?DIVKO?UN975?BGR?UQ47?ASTRO?UM985?YES?UN747?SVL?UM744?ROSAL?UZ227?EXONA

Weather Information
LDZA 092230Z 24003KT CAVOK 05/M00 Q1022 NOSIG
LPPT 092230Z 34003KT 310V010 9999 BKN006 16/16 Q1021
Schedule Frequency

Route Map